sensor_id;sensor_type;location;lat;lon;timestamp;temperature;humidity
48998;DHT22;34807;51.456;7.244;2024-02-21T00:00:04;8.40;99.90
48998;DHT22;34807;51.456;7.244;2024-02-21T00:02:30;8.30;99.90
48998;DHT22;34807;51.456;7.244;2024-02-21T00:04:56;8.40;99.90
48998;DHT22;34807;51.456;7.244;2024-02-21T00:07:21;8.40;99.90
48998;DHT22;34807;51.456;7.244;2024-02-21T00:09:47;8.40;99.90
48998;DHT22;34807;51.456;7.244;2024-02-21T00:12:12;8.40;99.90
48998;DHT22;34807;51.456;7.244;2024-02-21T00:14:39;8.30;99.90
48998;DHT22;34807;51.456;7.244;2024-02-21T00:17:05;8.30;99.90
48998;DHT22;34807;51.456;7.244;2024-02-21T00:19:31;8.30;99.90
48998;DHT22;34807;51.456;7.244;2024-02-21T00:21:56;8.40;99.90
48998;DHT22;34807;51.456;7.244;2024-02-21T00:24:22;8.30;99.90
48998;DHT22;34807;51.456;7.244;2024-02-21T00:26:47;8.30;99.90
48998;DHT22;34807;51.456;7.244;2024-02-21T00:29:13;8.30;99.90
48998;DHT22;34807;51.456;7.244;2024-02-21T00:31:38;8.30;99.90
48998;DHT22;34807;51.456;7.244;2024-02-21T00:34:04;8.30;99.90
48998;DHT22;34807;51.456;7.244;2024-02-21T00:36:29;8.30;99.90
48998;DHT22;34807;51.456;7.244;2024-02-21T00:38:55;8.30;99.90
48998;DHT22;34807;51.456;7.244;2024-02-21T00:41:20;8.30;99.90
48998;DHT22;34807;51.456;7.244;2024-02-21T00:43:46;8.30;99.90
48998;DHT22;34807;51.456;7.244;2024-02-21T00:46:13;8.30;99.90
48998;DHT22;34807;51.456;7.244;2024-02-21T00:48:39;8.30;99.90
48998;DHT22;34807;51.456;7.244;2024-02-21T00:51:05;8.30;99.90
48998;DHT22;34807;51.456;7.244;2024-02-21T00:53:30;8.30;99.90
48998;DHT22;34807;51.456;7.244;2024-02-21T00:55:56;8.30;99.90
48998;DHT22;34807;51.456;7.244;2024-02-21T00:58:22;8.30;99.90
48998;DHT22;34807;51.456;7.244;2024-02-21T01:00:47;8.30;99.90
48998;DHT22;34807;51.456;7.244;2024-02-21T01:03:13;8.30;99.90
48998;DHT22;34807;51.456;7.244;2024-02-21T01:05:38;8.30;99.90
48998;DHT22;34807;51.456;7.244;2024-02-21T01:08:04;8.30;99.90
48998;DHT22;34807;51.456;7.244;2024-02-21T01:10:30;8.30;99.90
48998;DHT22;34807;51.456;7.244;2024-02-21T01:12:55;8.30;99.90
48998;DHT22;34807;51.456;7.244;2024-02-21T01:15:21;8.30;99.90
48998;DHT22;34807;51.456;7.244;2024-02-21T01:17:47;8.30;99.90
48998;DHT22;34807;51.456;7.244;2024-02-21T01:20:12;8.30;99.90
48998;DHT22;34807;51.456;7.244;2024-02-21T01:22:38;8.30;99.90
48998;DHT22;34807;51.456;7.244;2024-02-21T01:25:03;8.30;99.90
48998;DHT22;34807;51.456;7.244;2024-02-21T01:27:29;8.30;99.90
48998;DHT22;34807;51.456;7.244;2024-02-21T01:29:55;8.30;99.90
48998;DHT22;34807;51.456;7.244;2024-02-21T01:32:21;8.30;99.90
48998;DHT22;34807;51.456;7.244;2024-02-21T01:34:47;8.30;99.90
48998;DHT22;34807;51.456;7.244;2024-02-21T01:37:12;8.30;99.90
48998;DHT22;34807;51.456;7.244;2024-02-21T01:39:38;8.30;99.90
48998;DHT22;34807;51.456;7.244;2024-02-21T01:42:03;8.30;99.90
48998;DHT22;34807;51.456;7.244;2024-02-21T01:44:29;8.30;99.90
48998;DHT22;34807;51.456;7.244;2024-02-21T01:46:54;8.30;99.90
48998;DHT22;34807;51.456;7.244;2024-02-21T01:49:20;8.30;99.90
48998;DHT22;34807;51.456;7.244;2024-02-21T01:51:47;8.30;99.90
48998;DHT22;34807;51.456;7.244;2024-02-21T01:54:13;8.20;99.90
48998;DHT22;34807;51.456;7.244;2024-02-21T01:56:39;8.20;99.90
48998;DHT22;34807;51.456;7.244;2024-02-21T01:59:04;8.30;99.90
48998;DHT22;34807;51.456;7.244;2024-02-21T02:01:30;8.30;99.90
48998;DHT22;34807;51.456;7.244;2024-02-21T02:03:55;8.20;99.90
48998;DHT22;34807;51.456;7.244;2024-02-21T02:06:21;8.20;99.90
48998;DHT22;34807;51.456;7.244;2024-02-21T02:08:46;8.20;99.90
48998;DHT22;34807;51.456;7.244;2024-02-21T02:11:15;8.20;99.90
48998;DHT22;34807;51.456;7.244;2024-02-21T02:13:40;8.20;99.90
48998;DHT22;34807;51.456;7.244;2024-02-21T02:16:06;8.20;99.90
48998;DHT22;34807;51.456;7.244;2024-02-21T02:18:31;8.20;99.90
48998;DHT22;34807;51.456;7.244;2024-02-21T02:20:57;8.20;99.90
48998;DHT22;34807;51.456;7.244;2024-02-21T02:23:26;8.20;99.90
48998;DHT22;34807;51.456;7.244;2024-02-21T02:25:52;8.20;99.90
48998;DHT22;34807;51.456;7.244;2024-02-21T02:28:17;8.20;99.90
48998;DHT22;34807;51.456;7.244;2024-02-21T02:30:43;8.20;99.90
48998;DHT22;34807;51.456;7.244;2024-02-21T02:33:08;8.20;99.90
48998;DHT22;34807;51.456;7.244;2024-02-21T02:35:34;8.20;99.90
48998;DHT22;34807;51.456;7.244;2024-02-21T02:38:02;8.20;99.90
48998;DHT22;34807;51.456;7.244;2024-02-21T02:40:27;8.20;99.90
48998;DHT22;34807;51.456;7.244;2024-02-21T02:42:53;8.20;99.90
48998;DHT22;34807;51.456;7.244;2024-02-21T02:45:20;8.20;99.90
48998;DHT22;34807;51.456;7.244;2024-02-21T02:47:46;8.20;99.90
48998;DHT22;34807;51.456;7.244;2024-02-21T02:50:12;8.10;99.90
48998;DHT22;34807;51.456;7.244;2024-02-21T02:52:37;8.20;99.90
48998;DHT22;34807;51.456;7.244;2024-02-21T02:55:03;8.10;99.90
48998;DHT22;34807;51.456;7.244;2024-02-21T02:57:29;8.20;99.90
48998;DHT22;34807;51.456;7.244;2024-02-21T02:59:55;8.20;99.90
48998;DHT22;34807;51.456;7.244;2024-02-21T03:02:20;8.10;99.90
48998;DHT22;34807;51.456;7.244;2024-02-21T03:04:46;8.10;99.90
48998;DHT22;34807;51.456;7.244;2024-02-21T03:07:11;8.10;99.90
48998;DHT22;34807;51.456;7.244;2024-02-21T03:09:37;8.10;99.90
48998;DHT22;34807;51.456;7.244;2024-02-21T03:12:03;8.10;99.90
48998;DHT22;34807;51.456;7.244;2024-02-21T03:14:29;8.10;99.90
48998;DHT22;34807;51.456;7.244;2024-02-21T03:16:54;8.10;99.90
48998;DHT22;34807;51.456;7.244;2024-02-21T03:19:20;8.10;99.90
48998;DHT22;34807;51.456;7.244;2024-02-21T03:21:45;8.10;99.90
48998;DHT22;34807;51.456;7.244;2024-02-21T03:24:11;8.10;99.90
48998;DHT22;34807;51.456;7.244;2024-02-21T03:26:36;8.10;99.90
48998;DHT22;34807;51.456;7.244;2024-02-21T03:29:03;8.10;99.90
48998;DHT22;34807;51.456;7.244;2024-02-21T03:31:28;8.10;99.90
48998;DHT22;34807;51.456;7.244;2024-02-21T03:33:54;8.10;99.90
48998;DHT22;34807;51.456;7.244;2024-02-21T03:36:19;8.10;99.90
48998;DHT22;34807;51.456;7.244;2024-02-21T03:38:45;8.10;99.90
48998;DHT22;34807;51.456;7.244;2024-02-21T03:41:10;8.10;99.90
48998;DHT22;34807;51.456;7.244;2024-02-21T03:43:37;8.10;99.90
48998;DHT22;34807;51.456;7.244;2024-02-21T03:46:03;8.10;99.90
48998;DHT22;34807;51.456;7.244;2024-02-21T03:48:28;8.10;99.90
48998;DHT22;34807;51.456;7.244;2024-02-21T03:50:54;8.10;99.90
48998;DHT22;34807;51.456;7.244;2024-02-21T03:53:19;8.10;99.90
48998;DHT22;34807;51.456;7.244;2024-02-21T03:55:45;8.10;99.90
48998;DHT22;34807;51.456;7.244;2024-02-21T03:58:10;8.10;99.90
48998;DHT22;34807;51.456;7.244;2024-02-21T04:00:36;8.10;99.90
48998;DHT22;34807;51.456;7.244;2024-02-21T04:03:02;8.10;99.90
48998;DHT22;34807;51.456;7.244;2024-02-21T04:05:28;8.10;99.90
48998;DHT22;34807;51.456;7.244;2024-02-21T04:07:53;8.10;99.90
48998;DHT22;34807;51.456;7.244;2024-02-21T04:10:19;8.10;99.90
48998;DHT22;34807;51.456;7.244;2024-02-21T04:12:44;8.10;99.90
48998;DHT22;34807;51.456;7.244;2024-02-21T04:15:10;8.10;99.90
48998;DHT22;34807;51.456;7.244;2024-02-21T04:17:36;8.10;99.90
48998;DHT22;34807;51.456;7.244;2024-02-21T04:20:04;8.10;99.90
48998;DHT22;34807;51.456;7.244;2024-02-21T04:22:33;8.10;99.90
48998;DHT22;34807;51.456;7.244;2024-02-21T04:25:02;8.10;99.90
48998;DHT22;34807;51.456;7.244;2024-02-21T04:27:27;8.10;99.90
48998;DHT22;34807;51.456;7.244;2024-02-21T04:29:53;8.10;99.90
48998;DHT22;34807;51.456;7.244;2024-02-21T04:32:19;8.10;99.90
48998;DHT22;34807;51.456;7.244;2024-02-21T04:34:44;8.10;99.90
48998;DHT22;34807;51.456;7.244;2024-02-21T04:37:10;8.10;99.90
48998;DHT22;34807;51.456;7.244;2024-02-21T04:39:35;8.10;99.90
48998;DHT22;34807;51.456;7.244;2024-02-21T04:42:01;8.10;99.90
48998;DHT22;34807;51.456;7.244;2024-02-21T04:44:26;8.10;99.90
48998;DHT22;34807;51.456;7.244;2024-02-21T04:46:52;8.10;99.90
48998;DHT22;34807;51.456;7.244;2024-02-21T04:49:18;8.10;99.90
48998;DHT22;34807;51.456;7.244;2024-02-21T04:51:44;8.10;99.90
48998;DHT22;34807;51.456;7.244;2024-02-21T04:54:09;8.10;99.90
48998;DHT22;34807;51.456;7.244;2024-02-21T04:56:35;8.10;99.90
48998;DHT22;34807;51.456;7.244;2024-02-21T04:59:00;8.10;99.90
48998;DHT22;34807;51.456;7.244;2024-02-21T05:01:26;8.10;99.90
48998;DHT22;34807;51.456;7.244;2024-02-21T05:03:53;8.10;99.90
48998;DHT22;34807;51.456;7.244;2024-02-21T05:06:18;8.10;99.90
48998;DHT22;34807;51.456;7.244;2024-02-21T05:08:44;8.10;99.90
48998;DHT22;34807;51.456;7.244;2024-02-21T05:11:10;8.10;99.90
48998;DHT22;34807;51.456;7.244;2024-02-21T05:13:35;8.10;99.90
48998;DHT22;34807;51.456;7.244;2024-02-21T05:16:01;8.10;99.90
48998;DHT22;34807;51.456;7.244;2024-02-21T05:18:27;8.10;99.90
48998;DHT22;34807;51.456;7.244;2024-02-21T05:20:53;8.10;99.90
48998;DHT22;34807;51.456;7.244;2024-02-21T05:23:19;8.10;99.90
48998;DHT22;34807;51.456;7.244;2024-02-21T05:25:44;8.10;99.90
48998;DHT22;34807;51.456;7.244;2024-02-21T05:28:10;8.10;99.90
48998;DHT22;34807;51.456;7.244;2024-02-21T05:30:35;8.10;99.90
48998;DHT22;34807;51.456;7.244;2024-02-21T05:33:06;8.10;99.90
48998;DHT22;34807;51.456;7.244;2024-02-21T05:35:32;8.10;99.90
48998;DHT22;34807;51.456;7.244;2024-02-21T05:37:57;8.10;99.90
48998;DHT22;34807;51.456;7.244;2024-02-21T05:40:24;8.10;99.90
48998;DHT22;34807;51.456;7.244;2024-02-21T05:42:50;8.10;99.90
48998;DHT22;34807;51.456;7.244;2024-02-21T05:45:17;8.10;99.90
48998;DHT22;34807;51.456;7.244;2024-02-21T05:47:43;8.10;99.90
48998;DHT22;34807;51.456;7.244;2024-02-21T05:50:09;8.10;99.90
48998;DHT22;34807;51.456;7.244;2024-02-21T05:52:34;8.10;99.90
48998;DHT22;34807;51.456;7.244;2024-02-21T05:55:00;8.10;99.90
48998;DHT22;34807;51.456;7.244;2024-02-21T05:57:25;8.10;99.90
48998;DHT22;34807;51.456;7.244;2024-02-21T05:59:51;8.00;99.90
48998;DHT22;34807;51.456;7.244;2024-02-21T06:02:16;8.10;99.90
48998;DHT22;34807;51.456;7.244;2024-02-21T06:04:42;8.10;99.90
48998;DHT22;34807;51.456;7.244;2024-02-21T06:07:08;8.10;99.90
48998;DHT22;34807;51.456;7.244;2024-02-21T06:09:34;8.10;99.90
48998;DHT22;34807;51.456;7.244;2024-02-21T06:11:59;8.00;99.90
48998;DHT22;34807;51.456;7.244;2024-02-21T06:14:25;8.10;99.90
48998;DHT22;34807;51.456;7.244;2024-02-21T06:16:50;8.10;99.90
48998;DHT22;34807;51.456;7.244;2024-02-21T06:19:16;8.10;99.90
48998;DHT22;34807;51.456;7.244;2024-02-21T06:21:41;8.00;99.90
48998;DHT22;34807;51.456;7.244;2024-02-21T06:24:07;8.10;99.90
48998;DHT22;34807;51.456;7.244;2024-02-21T06:26:32;8.10;99.90
48998;DHT22;34807;51.456;7.244;2024-02-21T06:28:58;8.00;99.90
48998;DHT22;34807;51.456;7.244;2024-02-21T06:31:25;8.10;99.90
48998;DHT22;34807;51.456;7.244;2024-02-21T06:33:50;8.00;99.90
48998;DHT22;34807;51.456;7.244;2024-02-21T06:36:16;8.00;99.90
48998;DHT22;34807;51.456;7.244;2024-02-21T06:38:41;8.10;99.90
48998;DHT22;34807;51.456;7.244;2024-02-21T06:41:14;8.10;99.90
48998;DHT22;34807;51.456;7.244;2024-02-21T06:43:39;8.10;99.90
48998;DHT22;34807;51.456;7.244;2024-02-21T06:46:05;8.10;99.90
48998;DHT22;34807;51.456;7.244;2024-02-21T06:48:30;8.00;99.90
48998;DHT22;34807;51.456;7.244;2024-02-21T06:50:56;8.10;99.90
48998;DHT22;34807;51.456;7.244;2024-02-21T06:53:21;8.00;99.90
48998;DHT22;34807;51.456;7.244;2024-02-21T06:55:47;8.10;99.90
48998;DHT22;34807;51.456;7.244;2024-02-21T06:58:12;8.10;99.90
48998;DHT22;34807;51.456;7.244;2024-02-21T07:00:39;8.10;99.90
48998;DHT22;34807;51.456;7.244;2024-02-21T07:03:04;8.10;99.90
48998;DHT22;34807;51.456;7.244;2024-02-21T07:05:30;8.10;99.90
48998;DHT22;34807;51.456;7.244;2024-02-21T07:07:55;8.10;99.90
48998;DHT22;34807;51.456;7.244;2024-02-21T07:10:21;8.10;99.90
48998;DHT22;34807;51.456;7.244;2024-02-21T07:12:46;8.10;99.90
48998;DHT22;34807;51.456;7.244;2024-02-21T07:15:12;8.00;99.90
48998;DHT22;34807;51.456;7.244;2024-02-21T07:17:38;8.10;99.90
48998;DHT22;34807;51.456;7.244;2024-02-21T07:20:03;8.10;99.90
48998;DHT22;34807;51.456;7.244;2024-02-21T07:22:29;8.10;99.90
48998;DHT22;34807;51.456;7.244;2024-02-21T07:24:54;8.10;99.90
48998;DHT22;34807;51.456;7.244;2024-02-21T07:27:20;8.10;99.90
48998;DHT22;34807;51.456;7.244;2024-02-21T07:29:45;8.10;99.90
48998;DHT22;34807;51.456;7.244;2024-02-21T07:32:14;8.10;99.90
48998;DHT22;34807;51.456;7.244;2024-02-21T07:34:39;8.10;99.90
48998;DHT22;34807;51.456;7.244;2024-02-21T07:37:05;8.10;99.90
48998;DHT22;34807;51.456;7.244;2024-02-21T07:39:30;8.10;99.90
48998;DHT22;34807;51.456;7.244;2024-02-21T07:41:56;8.10;99.90
48998;DHT22;34807;51.456;7.244;2024-02-21T07:44:21;8.10;99.90
48998;DHT22;34807;51.456;7.244;2024-02-21T07:46:47;8.20;99.90
48998;DHT22;34807;51.456;7.244;2024-02-21T07:49:12;8.10;99.90
48998;DHT22;34807;51.456;7.244;2024-02-21T07:51:38;8.10;99.90
48998;DHT22;34807;51.456;7.244;2024-02-21T07:54:03;8.20;99.90
48998;DHT22;34807;51.456;7.244;2024-02-21T07:56:29;8.20;99.90
48998;DHT22;34807;51.456;7.244;2024-02-21T07:58:55;8.20;99.90
48998;DHT22;34807;51.456;7.244;2024-02-21T08:01:20;8.20;99.90
48998;DHT22;34807;51.456;7.244;2024-02-21T08:03:46;8.20;99.90
48998;DHT22;34807;51.456;7.244;2024-02-21T08:06:15;8.20;99.90
48998;DHT22;34807;51.456;7.244;2024-02-21T08:08:40;8.20;99.90
48998;DHT22;34807;51.456;7.244;2024-02-21T08:11:06;8.30;99.90
48998;DHT22;34807;51.456;7.244;2024-02-21T08:13:31;8.30;99.90
48998;DHT22;34807;51.456;7.244;2024-02-21T08:15:57;8.30;99.90
48998;DHT22;34807;51.456;7.244;2024-02-21T08:18:22;8.30;99.90
48998;DHT22;34807;51.456;7.244;2024-02-21T08:20:48;8.30;99.90
48998;DHT22;34807;51.456;7.244;2024-02-21T08:23:17;8.40;99.90
48998;DHT22;34807;51.456;7.244;2024-02-21T08:25:43;8.40;99.90
48998;DHT22;34807;51.456;7.244;2024-02-21T08:28:08;8.40;99.90
48998;DHT22;34807;51.456;7.244;2024-02-21T08:30:34;8.40;99.90
48998;DHT22;34807;51.456;7.244;2024-02-21T08:33:00;8.50;99.90
48998;DHT22;34807;51.456;7.244;2024-02-21T08:35:25;8.40;99.90
48998;DHT22;34807;51.456;7.244;2024-02-21T08:37:51;8.50;99.90
48998;DHT22;34807;51.456;7.244;2024-02-21T08:40:16;8.50;99.90
48998;DHT22;34807;51.456;7.244;2024-02-21T08:42:46;8.50;99.90
48998;DHT22;34807;51.456;7.244;2024-02-21T08:45:12;8.50;99.90
48998;DHT22;34807;51.456;7.244;2024-02-21T08:47:40;8.50;99.90
48998;DHT22;34807;51.456;7.244;2024-02-21T08:50:06;8.50;99.90
48998;DHT22;34807;51.456;7.244;2024-02-21T08:52:32;8.60;99.90
48998;DHT22;34807;51.456;7.244;2024-02-21T08:54:57;8.50;99.90
48998;DHT22;34807;51.456;7.244;2024-02-21T08:57:23;8.60;99.90
48998;DHT22;34807;51.456;7.244;2024-02-21T08:59:49;8.50;99.90
48998;DHT22;34807;51.456;7.244;2024-02-21T09:02:14;8.60;99.90
48998;DHT22;34807;51.456;7.244;2024-02-21T09:04:42;8.50;99.90
48998;DHT22;34807;51.456;7.244;2024-02-21T09:07:09;8.50;99.90
48998;DHT22;34807;51.456;7.244;2024-02-21T09:09:35;8.60;99.90
48998;DHT22;34807;51.456;7.244;2024-02-21T09:12:00;8.60;99.90
48998;DHT22;34807;51.456;7.244;2024-02-21T09:14:31;8.50;99.90
48998;DHT22;34807;51.456;7.244;2024-02-21T09:16:57;8.60;99.90
48998;DHT22;34807;51.456;7.244;2024-02-21T09:19:22;8.60;99.90
48998;DHT22;34807;51.456;7.244;2024-02-21T09:21:48;8.50;99.90
48998;DHT22;34807;51.456;7.244;2024-02-21T09:24:14;8.60;99.90
48998;DHT22;34807;51.456;7.244;2024-02-21T09:26:39;8.60;99.90
48998;DHT22;34807;51.456;7.244;2024-02-21T09:29:05;8.50;99.90
48998;DHT22;34807;51.456;7.244;2024-02-21T09:31:30;8.60;99.90
48998;DHT22;34807;51.456;7.244;2024-02-21T09:33:56;8.50;99.90
48998;DHT22;34807;51.456;7.244;2024-02-21T09:36:21;8.50;99.90
48998;DHT22;34807;51.456;7.244;2024-02-21T09:38:47;8.50;99.90
48998;DHT22;34807;51.456;7.244;2024-02-21T09:43:38;8.50;99.90
48998;DHT22;34807;51.456;7.244;2024-02-21T09:46:05;8.50;99.90
48998;DHT22;34807;51.456;7.244;2024-02-21T09:48:35;8.50;99.90
48998;DHT22;34807;51.456;7.244;2024-02-21T09:51:03;8.50;99.90
48998;DHT22;34807;51.456;7.244;2024-02-21T09:53:29;8.60;99.90
48998;DHT22;34807;51.456;7.244;2024-02-21T09:55:55;8.50;99.90
48998;DHT22;34807;51.456;7.244;2024-02-21T09:58:22;8.50;99.90
48998;DHT22;34807;51.456;7.244;2024-02-21T10:00:49;8.50;99.90
48998;DHT22;34807;51.456;7.244;2024-02-21T10:03:14;8.50;99.90
48998;DHT22;34807;51.456;7.244;2024-02-21T10:05:45;8.50;99.90
48998;DHT22;34807;51.456;7.244;2024-02-21T10:08:13;8.50;99.90
48998;DHT22;34807;51.456;7.244;2024-02-21T10:10:45;8.50;99.90
48998;DHT22;34807;51.456;7.244;2024-02-21T10:13:21;8.50;99.90
48998;DHT22;34807;51.456;7.244;2024-02-21T10:15:47;8.50;99.90
48998;DHT22;34807;51.456;7.244;2024-02-21T10:18:15;8.50;99.90
48998;DHT22;34807;51.456;7.244;2024-02-21T10:20:42;8.50;99.90
48998;DHT22;34807;51.456;7.244;2024-02-21T10:23:09;8.60;99.90
48998;DHT22;34807;51.456;7.244;2024-02-21T10:25:35;8.60;99.90
48998;DHT22;34807;51.456;7.244;2024-02-21T10:28:01;8.60;99.90
48998;DHT22;34807;51.456;7.244;2024-02-21T10:30:27;8.60;99.90
48998;DHT22;34807;51.456;7.244;2024-02-21T10:32:53;8.60;99.90
48998;DHT22;34807;51.456;7.244;2024-02-21T10:35:28;8.70;99.90
48998;DHT22;34807;51.456;7.244;2024-02-21T10:37:54;8.70;99.90
48998;DHT22;34807;51.456;7.244;2024-02-21T10:40:30;8.70;99.90
48998;DHT22;34807;51.456;7.244;2024-02-21T10:42:59;8.80;99.90
48998;DHT22;34807;51.456;7.244;2024-02-21T10:45:29;8.80;99.90
48998;DHT22;34807;51.456;7.244;2024-02-21T10:47:55;8.90;99.90
48998;DHT22;34807;51.456;7.244;2024-02-21T10:50:22;8.90;99.90
48998;DHT22;34807;51.456;7.244;2024-02-21T10:52:56;8.90;99.90
48998;DHT22;34807;51.456;7.244;2024-02-21T10:55:26;8.90;99.90
48998;DHT22;34807;51.456;7.244;2024-02-21T10:57:54;9.00;99.90
48998;DHT22;34807;51.456;7.244;2024-02-21T11:00:20;9.00;99.90
48998;DHT22;34807;51.456;7.244;2024-02-21T11:02:46;9.00;99.90
48998;DHT22;34807;51.456;7.244;2024-02-21T11:05:12;9.10;99.90
48998;DHT22;34807;51.456;7.244;2024-02-21T11:07:38;9.10;99.90
48998;DHT22;34807;51.456;7.244;2024-02-21T11:10:05;9.20;99.90
48998;DHT22;34807;51.456;7.244;2024-02-21T11:12:32;9.20;99.90
48998;DHT22;34807;51.456;7.244;2024-02-21T11:15:07;9.30;99.90
48998;DHT22;34807;51.456;7.244;2024-02-21T11:17:33;9.30;99.90
48998;DHT22;34807;51.456;7.244;2024-02-21T11:19:58;9.30;99.90
48998;DHT22;34807;51.456;7.244;2024-02-21T11:22:26;9.40;99.90
48998;DHT22;34807;51.456;7.244;2024-02-21T11:25:05;9.40;99.90
48998;DHT22;34807;51.456;7.244;2024-02-21T11:27:33;9.50;99.90
48998;DHT22;34807;51.456;7.244;2024-02-21T11:29:59;9.50;99.90
48998;DHT22;34807;51.456;7.244;2024-02-21T11:32:25;9.50;99.90
48998;DHT22;34807;51.456;7.244;2024-02-21T11:34:57;9.50;99.90
48998;DHT22;34807;51.456;7.244;2024-02-21T11:37:31;9.60;99.90
48998;DHT22;34807;51.456;7.244;2024-02-21T11:39:58;9.60;99.90
48998;DHT22;34807;51.456;7.244;2024-02-21T11:42:25;9.70;99.90
48998;DHT22;34807;51.456;7.244;2024-02-21T11:44:50;9.70;99.90
48998;DHT22;34807;51.456;7.244;2024-02-21T11:47:16;9.70;99.90
48998;DHT22;34807;51.456;7.244;2024-02-21T11:49:45;9.80;99.90
48998;DHT22;34807;51.456;7.244;2024-02-21T11:52:12;9.80;99.90
48998;DHT22;34807;51.456;7.244;2024-02-21T11:54:39;9.80;99.90
48998;DHT22;34807;51.456;7.244;2024-02-21T11:57:05;9.90;99.90
48998;DHT22;34807;51.456;7.244;2024-02-21T11:59:30;9.90;99.90
48998;DHT22;34807;51.456;7.244;2024-02-21T12:01:57;9.90;99.90
48998;DHT22;34807;51.456;7.244;2024-02-21T12:04:23;9.90;99.90
48998;DHT22;34807;51.456;7.244;2024-02-21T12:06:54;9.90;99.90
48998;DHT22;34807;51.456;7.244;2024-02-21T12:09:20;10.00;99.90
48998;DHT22;34807;51.456;7.244;2024-02-21T12:11:45;10.00;99.90
48998;DHT22;34807;51.456;7.244;2024-02-21T12:14:15;10.10;99.90
48998;DHT22;34807;51.456;7.244;2024-02-21T12:16:41;10.10;99.90
48998;DHT22;34807;51.456;7.244;2024-02-21T12:19:07;10.10;99.90
48998;DHT22;34807;51.456;7.244;2024-02-21T12:21:34;10.10;99.90
48998;DHT22;34807;51.456;7.244;2024-02-21T12:24:21;10.20;99.90
48998;DHT22;34807;51.456;7.244;2024-02-21T12:26:47;10.20;99.90
48998;DHT22;34807;51.456;7.244;2024-02-21T12:29:12;10.20;99.90
48998;DHT22;34807;51.456;7.244;2024-02-21T12:31:38;10.20;99.90
48998;DHT22;34807;51.456;7.244;2024-02-21T12:34:04;10.20;99.90
48998;DHT22;34807;51.456;7.244;2024-02-21T12:36:33;10.30;99.90
48998;DHT22;34807;51.456;7.244;2024-02-21T12:38:59;10.30;99.90
48998;DHT22;34807;51.456;7.244;2024-02-21T12:41:24;10.30;99.90
48998;DHT22;34807;51.456;7.244;2024-02-21T12:43:52;10.30;99.90
48998;DHT22;34807;51.456;7.244;2024-02-21T12:46:17;10.30;99.90
48998;DHT22;34807;51.456;7.244;2024-02-21T12:48:43;10.40;99.90
48998;DHT22;34807;51.456;7.244;2024-02-21T12:51:08;10.40;99.90
48998;DHT22;34807;51.456;7.244;2024-02-21T12:53:34;10.40;99.90
48998;DHT22;34807;51.456;7.244;2024-02-21T12:56:00;10.40;99.90
48998;DHT22;34807;51.456;7.244;2024-02-21T12:58:25;10.50;99.90
48998;DHT22;34807;51.456;7.244;2024-02-21T13:00:51;10.50;99.90
48998;DHT22;34807;51.456;7.244;2024-02-21T13:03:16;10.50;99.90
48998;DHT22;34807;51.456;7.244;2024-02-21T13:05:42;10.60;99.90
48998;DHT22;34807;51.456;7.244;2024-02-21T13:08:11;10.60;99.90
48998;DHT22;34807;51.456;7.244;2024-02-21T13:10:37;10.60;99.90
48998;DHT22;34807;51.456;7.244;2024-02-21T13:13:03;10.70;99.90
48998;DHT22;34807;51.456;7.244;2024-02-21T13:15:28;10.70;99.90
48998;DHT22;34807;51.456;7.244;2024-02-21T13:17:55;10.70;99.90
48998;DHT22;34807;51.456;7.244;2024-02-21T13:20:21;10.80;99.90
48998;DHT22;34807;51.456;7.244;2024-02-21T13:22:47;10.80;99.90
48998;DHT22;34807;51.456;7.244;2024-02-21T13:25:12;10.80;99.90
48998;DHT22;34807;51.456;7.244;2024-02-21T13:27:40;10.80;99.90
48998;DHT22;34807;51.456;7.244;2024-02-21T13:30:06;10.80;99.90
48998;DHT22;34807;51.456;7.244;2024-02-21T13:32:34;10.80;99.90
48998;DHT22;34807;51.456;7.244;2024-02-21T13:34:59;10.90;99.90
48998;DHT22;34807;51.456;7.244;2024-02-21T13:37:27;10.90;99.90
48998;DHT22;34807;51.456;7.244;2024-02-21T13:39:52;10.90;99.90
48998;DHT22;34807;51.456;7.244;2024-02-21T13:42:18;10.90;99.90
48998;DHT22;34807;51.456;7.244;2024-02-21T13:44:44;11.00;99.90
48998;DHT22;34807;51.456;7.244;2024-02-21T13:47:10;11.00;99.90
48998;DHT22;34807;51.456;7.244;2024-02-21T13:49:36;11.00;99.90
48998;DHT22;34807;51.456;7.244;2024-02-21T13:52:02;11.00;99.90
48998;DHT22;34807;51.456;7.244;2024-02-21T13:54:27;11.00;99.90
48998;DHT22;34807;51.456;7.244;2024-02-21T13:56:53;11.00;99.90
48998;DHT22;34807;51.456;7.244;2024-02-21T13:59:18;11.00;99.90
48998;DHT22;34807;51.456;7.244;2024-02-21T14:01:44;11.00;99.90
48998;DHT22;34807;51.456;7.244;2024-02-21T14:04:09;11.00;99.90
48998;DHT22;34807;51.456;7.244;2024-02-21T14:06:35;11.00;99.90
48998;DHT22;34807;51.456;7.244;2024-02-21T14:09:02;11.00;99.90
48998;DHT22;34807;51.456;7.244;2024-02-21T14:11:28;11.00;99.90
48998;DHT22;34807;51.456;7.244;2024-02-21T14:13:54;11.00;99.90
48998;DHT22;34807;51.456;7.244;2024-02-21T14:16:22;11.00;99.90
48998;DHT22;34807;51.456;7.244;2024-02-21T14:18:48;11.00;99.90
48998;DHT22;34807;51.456;7.244;2024-02-21T14:21:13;11.00;99.90
48998;DHT22;34807;51.456;7.244;2024-02-21T14:23:39;10.90;99.90
48998;DHT22;34807;51.456;7.244;2024-02-21T14:26:05;10.90;99.90
48998;DHT22;34807;51.456;7.244;2024-02-21T14:28:31;10.90;99.90
48998;DHT22;34807;51.456;7.244;2024-02-21T14:30:59;10.90;99.90
48998;DHT22;34807;51.456;7.244;2024-02-21T14:33:28;11.00;99.90
48998;DHT22;34807;51.456;7.244;2024-02-21T14:35:55;11.00;99.90
48998;DHT22;34807;51.456;7.244;2024-02-21T14:38:20;11.00;99.90
48998;DHT22;34807;51.456;7.244;2024-02-21T14:40:46;11.00;99.90
48998;DHT22;34807;51.456;7.244;2024-02-21T14:43:11;11.00;99.90
48998;DHT22;34807;51.456;7.244;2024-02-21T14:45:37;11.00;99.90
48998;DHT22;34807;51.456;7.244;2024-02-21T14:48:04;11.00;99.90
48998;DHT22;34807;51.456;7.244;2024-02-21T14:50:29;11.00;99.90
48998;DHT22;34807;51.456;7.244;2024-02-21T14:52:55;10.90;99.90
48998;DHT22;34807;51.456;7.244;2024-02-21T14:55:21;10.90;99.90
48998;DHT22;34807;51.456;7.244;2024-02-21T14:57:47;10.90;99.90
48998;DHT22;34807;51.456;7.244;2024-02-21T15:00:12;11.00;99.90
48998;DHT22;34807;51.456;7.244;2024-02-21T15:02:38;10.90;99.90
48998;DHT22;34807;51.456;7.244;2024-02-21T15:05:04;10.90;99.90
48998;DHT22;34807;51.456;7.244;2024-02-21T15:07:31;10.90;99.90
48998;DHT22;34807;51.456;7.244;2024-02-21T15:09:56;10.90;99.90
48998;DHT22;34807;51.456;7.244;2024-02-21T15:12:22;10.90;99.90
48998;DHT22;34807;51.456;7.244;2024-02-21T15:14:48;10.90;99.90
48998;DHT22;34807;51.456;7.244;2024-02-21T15:17:14;10.80;99.90
48998;DHT22;34807;51.456;7.244;2024-02-21T15:19:39;10.80;99.90
48998;DHT22;34807;51.456;7.244;2024-02-21T15:22:11;10.80;99.90
48998;DHT22;34807;51.456;7.244;2024-02-21T15:24:38;10.80;99.90
48998;DHT22;34807;51.456;7.244;2024-02-21T15:27:03;10.80;99.90
48998;DHT22;34807;51.456;7.244;2024-02-21T15:29:29;10.70;99.90
48998;DHT22;34807;51.456;7.244;2024-02-21T15:31:54;10.70;99.90
48998;DHT22;34807;51.456;7.244;2024-02-21T15:34:21;10.70;99.90
48998;DHT22;34807;51.456;7.244;2024-02-21T15:36:47;10.70;99.90